createdAt,value
2017-03-22T00:00:01.608Z,93.04
2017-03-22T00:00:05.809Z,93.7
2017-03-22T00:00:09.899Z,93.7
2017-03-22T00:00:14.348Z,93.04
2017-03-22T00:00:18.585Z,93.51
2017-03-22T00:00:23.017Z,93.51
2017-03-22T00:00:27.450Z,93.79
2017-03-22T00:00:31.882Z,93.89
2017-03-22T00:00:36.208Z,93.89
2017-03-22T00:00:40.522Z,93.41
2017-03-22T00:00:44.838Z,93.6
2017-03-22T00:00:49.269Z,93.99
2017-03-22T00:00:53.586Z,93.6
2017-03-22T00:00:57.780Z,93.7
2017-03-22T00:01:02.092Z,93.41
2017-03-22T00:01:06.532Z,93.6
2017-03-22T00:01:10.967Z,93.41
2017-03-22T00:01:15.289Z,93.51
2017-03-22T00:01:19.714Z,93.7
2017-03-22T00:01:24.149Z,93.51
2017-03-22T00:01:28.592Z,93.51
2017-03-22T00:01:33.017Z,93.7
2017-03-22T00:01:37.449Z,93.51
2017-03-22T00:01:41.881Z,93.7
2017-03-22T00:01:46.318Z,93.6
2017-03-22T00:01:50.625Z,93.04
2017-03-22T00:01:54.933Z,93.13
2017-03-22T00:01:59.379Z,92.85
2017-03-22T00:02:03.818Z,93.04
2017-03-22T00:02:08.021Z,93.04
2017-03-22T00:02:12.335Z,93.7
2017-03-22T00:02:16.773Z,92.94
2017-03-22T00:02:21.086Z,92.94
2017-03-22T00:02:25.402Z,93.51
2017-03-22T00:02:29.723Z,93.6
2017-03-22T00:02:34.041Z,93.51
2017-03-22T00:02:38.485Z,93.51
2017-03-22T00:02:42.927Z,93.79
2017-03-22T00:02:47.363Z,93.41
2017-03-22T00:02:51.454Z,93.89
2017-03-22T00:02:55.895Z,93.32
2017-03-22T00:03:00.333Z,93.79
2017-03-22T00:03:04.516Z,93.32
2017-03-22T00:03:08.831Z,93.6
2017-03-22T00:03:13.294Z,93.23
2017-03-22T00:03:17.614Z,93.7
2017-03-22T00:03:22.054Z,93.6
2017-03-22T00:03:26.376Z,93.79
2017-03-22T00:03:30.810Z,93.7
2017-03-22T00:03:35.246Z,93.51
2017-03-22T00:03:39.692Z,93.51
2017-03-22T00:03:44.143Z,93.6
2017-03-22T00:03:48.461Z,93.13
2017-03-22T00:03:52.430Z,93.7
2017-03-22T00:03:56.866Z,93.89
2017-03-22T00:04:01.188Z,93.79
2017-03-22T00:04:05.537Z,93.51
2017-03-22T00:04:09.857Z,93.51
2017-03-22T00:04:14.180Z,93.6
2017-03-22T00:04:18.556Z,93.7
2017-03-22T00:04:22.882Z,93.89
2017-03-22T00:04:27.323Z,93.51
2017-03-22T00:04:31.645Z,93.7
2017-03-22T00:04:36.106Z,93.51
2017-03-22T00:04:40.536Z,93.13
2017-03-22T00:04:44.848Z,93.7
2017-03-22T00:04:49.046Z,93.6
2017-03-22T00:04:53.489Z,93.41
2017-03-22T00:04:57.935Z,93.6
2017-03-22T00:05:02.402Z,93.04
2017-03-22T00:05:06.719Z,93.6
2017-03-22T00:05:11.157Z,93.7
2017-03-22T00:05:15.598Z,93.51
2017-03-22T00:05:19.912Z,93.6
2017-03-22T00:05:24.355Z,93.7
2017-03-22T00:05:28.788Z,93.41
2017-03-22T00:05:32.977Z,93.79
2017-03-22T00:05:37.288Z,93.6
2017-03-22T00:05:41.611Z,93.6
2017-03-22T00:05:46.036Z,93.99
2017-03-22T00:05:50.343Z,93.51
2017-03-22T00:05:54.780Z,93.32
2017-03-22T00:05:59.214Z,93.79
2017-03-22T00:06:03.524Z,93.7
2017-03-22T00:06:07.831Z,93.6
2017-03-22T00:06:12.142Z,93.51
2017-03-22T00:06:16.576Z,93.51
2017-03-22T00:06:21.005Z,93.51
2017-03-22T00:06:25.316Z,93.89
2017-03-22T00:06:29.748Z,93.79
2017-03-22T00:06:34.183Z,93.41
2017-03-22T00:06:38.610Z,93.7
2017-03-22T00:06:42.693Z,93.51
2017-03-22T00:06:47.127Z,93.6
2017-03-22T00:06:51.451Z,93.7
2017-03-22T00:06:55.885Z,93.7
2017-03-22T00:07:00.321Z,93.51
2017-03-22T00:07:04.617Z,93.41
2017-03-22T00:07:08.953Z,93.6
2017-03-22T00:07:13.397Z,93.51
2017-03-22T00:07:17.718Z,93.7
2017-03-22T00:07:22.039Z,93.51
2017-03-22T00:07:26.470Z,93.6
2017-03-22T00:07:30.781Z,93.7
2017-03-22T00:07:35.218Z,93.51
2017-03-22T00:07:39.545Z,93.7
2017-03-22T00:07:43.787Z,93.13
2017-03-22T00:07:48.225Z,93.32
2017-03-22T00:07:52.666Z,93.13
2017-03-22T00:07:57.118Z,93.23
2017-03-22T00:08:01.443Z,93.13
2017-03-22T00:08:05.661Z,92.75
2017-03-22T00:08:09.979Z,92.94
2017-03-22T00:08:14.327Z,93.13
2017-03-22T00:08:18.642Z,93.23
2017-03-22T00:08:23.075Z,93.13
2017-03-22T00:08:27.274Z,93.6
2017-03-22T00:08:31.605Z,93.6
2017-03-22T00:08:36.045Z,93.7
2017-03-22T00:08:40.244Z,93.6
2017-03-22T00:08:44.570Z,93.41
2017-03-22T00:08:49.027Z,93.51
2017-03-22T00:08:53.350Z,93.79
2017-03-22T00:08:57.790Z,93.51
2017-03-22T00:09:02.114Z,93.41
2017-03-22T00:09:06.554Z,93.79
2017-03-22T00:09:10.870Z,93.6
2017-03-22T00:09:15.189Z,93.7
2017-03-22T00:09:19.631Z,93.79
2017-03-22T00:09:23.995Z,93.89
2017-03-22T00:09:28.428Z,93.79
2017-03-22T00:09:32.737Z,93.99
2017-03-22T00:09:37.060Z,93.79
2017-03-22T00:09:41.264Z,93.99
2017-03-22T00:09:45.574Z,94.08
2017-03-22T00:09:49.882Z,94.18
2017-03-22T00:09:54.327Z,94.18
2017-03-22T00:09:58.531Z,93.99
2017-03-22T00:10:02.855Z,94.18
2017-03-22T00:10:07.041Z,93.99
2017-03-22T00:10:11.477Z,94.27
2017-03-22T00:10:15.929Z,94.56
2017-03-22T00:10:20.356Z,94.08
2017-03-22T00:10:24.779Z,94.46
2017-03-22T00:10:28.981Z,94.46
2017-03-22T00:10:33.410Z,94.65
2017-03-22T00:10:37.728Z,94.08
2017-03-22T00:10:42.153Z,94.46
2017-03-22T00:10:46.469Z,94.93
2017-03-22T00:10:50.781Z,94.18
2017-03-22T00:10:55.212Z,94.56
2017-03-22T00:10:59.640Z,94.08
2017-03-22T00:11:04.323Z,94.65
2017-03-22T00:11:08.751Z,94.08
2017-03-22T00:11:13.060Z,94.84
2017-03-22T00:11:17.371Z,94.93
2017-03-22T00:11:21.797Z,94.08
2017-03-22T00:11:26.227Z,94.46
2017-03-22T00:11:30.656Z,94.74
2017-03-22T00:11:34.766Z,94.46
2017-03-22T00:11:39.202Z,94.46
2017-03-22T00:11:43.513Z,94.46
2017-03-22T00:11:47.951Z,94.08
2017-03-22T00:11:52.295Z,94.18
2017-03-22T00:11:56.723Z,94.27
2017-03-22T00:12:01.039Z,94.08
2017-03-22T00:12:05.488Z,94.08
2017-03-22T00:12:09.810Z,94.27
2017-03-22T00:12:14.248Z,94.08
2017-03-22T00:12:18.564Z,93.7
2017-03-22T00:12:22.987Z,93.51
2017-03-22T00:12:27.430Z,93.99
2017-03-22T00:12:31.860Z,93.23
2017-03-22T00:12:36.181Z,93.7
2017-03-22T00:12:40.619Z,94.56
2017-03-22T00:12:44.945Z,94.18
2017-03-22T00:12:49.377Z,94.08
2017-03-22T00:12:53.807Z,94.08
2017-03-22T00:12:58.125Z,93.99
2017-03-22T00:13:02.529Z,94.18
2017-03-22T00:13:06.616Z,93.99
2017-03-22T00:13:10.936Z,94.27
2017-03-22T00:13:15.368Z,94.93
2017-03-22T00:13:19.694Z,94.37
2017-03-22T00:13:24.192Z,94.56
2017-03-22T00:13:28.632Z,94.46
2017-03-22T00:13:33.072Z,94.37
2017-03-22T00:13:37.281Z,94.27
2017-03-22T00:13:41.615Z,94.74
2017-03-22T00:13:46.055Z,94.84
2017-03-22T00:13:50.490Z,94.37
2017-03-22T00:13:54.821Z,94.37
2017-03-22T00:13:59.135Z,94.46
2017-03-22T00:14:03.416Z,94.93
2017-03-22T00:14:07.849Z,94.37
2017-03-22T00:14:12.296Z,94.08
2017-03-22T00:14:16.614Z,94.08
2017-03-22T00:14:21.054Z,94.46
2017-03-22T00:14:25.488Z,94.46
2017-03-22T00:14:29.567Z,94.46
2017-03-22T00:14:34.027Z,94.18
2017-03-22T00:14:38.469Z,94.65
2017-03-22T00:14:42.776Z,94.46
2017-03-22T00:14:47.241Z,93.99
2017-03-22T00:14:51.561Z,93.99
2017-03-22T00:14:55.997Z,94.46
2017-03-22T00:15:00.204Z,94.37
2017-03-22T00:15:04.536Z,94.65
2017-03-22T00:15:08.895Z,94.46
2017-03-22T00:15:13.213Z,94.08
2017-03-22T00:15:17.401Z,94.65
2017-03-22T00:15:21.832Z,94.65
2017-03-22T00:15:26.274Z,94.27
2017-03-22T00:15:30.586Z,94.37
2017-03-22T00:15:34.891Z,94.27
2017-03-22T00:15:39.322Z,94.18
2017-03-22T00:15:43.756Z,94.18
2017-03-22T00:15:48.184Z,93.99
2017-03-22T00:15:52.490Z,94.27
2017-03-22T00:15:56.925Z,93.99
2017-03-22T00:16:01.233Z,94.08
2017-03-22T00:16:05.478Z,94.37
2017-03-22T00:16:09.917Z,94.27
2017-03-22T00:16:14.356Z,94.27
2017-03-22T00:16:18.828Z,93.89
2017-03-22T00:16:23.025Z,94.27
2017-03-22T00:16:27.341Z,93.7
2017-03-22T00:16:31.815Z,93.99
2017-03-22T00:16:36.010Z,94.27
2017-03-22T00:16:40.436Z,93.99
2017-03-22T00:16:44.861Z,94.46
2017-03-22T00:16:49.176Z,94.37
2017-03-22T00:16:53.598Z,94.46
2017-03-22T00:16:58.035Z,94.93
2017-03-22T00:17:02.448Z,94.84
2017-03-22T00:17:06.648Z,94.93
2017-03-22T00:17:10.964Z,95.22
2017-03-22T00:17:15.393Z,94.65
2017-03-22T00:17:19.706Z,94.37
2017-03-22T00:17:24.023Z,94.27
2017-03-22T00:17:28.458Z,94.65
2017-03-22T00:17:32.771Z,94.46
2017-03-22T00:17:37.087Z,94.93
2017-03-22T00:17:41.574Z,94.84
2017-03-22T00:17:46.019Z,95.03
2017-03-22T00:17:50.458Z,95.51
2017-03-22T00:17:54.893Z,95.32
2017-03-22T00:17:59.212Z,95.51
2017-03-22T00:18:03.430Z,94.84
2017-03-22T00:18:07.864Z,95.22
2017-03-22T00:18:12.301Z,94.93
2017-03-22T00:18:16.747Z,95.41
2017-03-22T00:18:21.190Z,94.74
2017-03-22T00:18:25.509Z,94.65
2017-03-22T00:18:29.830Z,95.03
2017-03-22T00:18:34.268Z,95.03
2017-03-22T00:18:38.596Z,95.12
2017-03-22T00:18:43.027Z,95.12
2017-03-22T00:18:47.471Z,95.12
2017-03-22T00:18:51.820Z,95.12
2017-03-22T00:18:56.267Z,95.22
2017-03-22T00:19:00.588Z,95.32
2017-03-22T00:19:04.951Z,95.12
2017-03-22T00:19:09.389Z,94.93
2017-03-22T00:19:13.879Z,94.74
2017-03-22T00:19:18.320Z,94.65
2017-03-22T00:19:22.760Z,94.84
2017-03-22T00:19:27.210Z,94.65
2017-03-22T00:19:31.653Z,94.65
2017-03-22T00:19:36.085Z,94.65
2017-03-22T00:19:40.394Z,94.08
2017-03-22T00:19:44.830Z,94.27
2017-03-22T00:19:49.195Z,94.74
2017-03-22T00:19:53.631Z,94.65
2017-03-22T00:19:57.950Z,94.74
2017-03-22T00:20:02.277Z,94.93
2017-03-22T00:20:06.472Z,94.65
2017-03-22T00:20:10.906Z,94.08
2017-03-22T00:20:14.979Z,94.37
2017-03-22T00:20:19.178Z,94.18
2017-03-22T00:20:23.609Z,94.08
2017-03-22T00:20:27.913Z,94.27
2017-03-22T00:20:32.103Z,94.37
2017-03-22T00:20:36.529Z,94.46
2017-03-22T00:20:40.836Z,94.08
2017-03-22T00:20:45.175Z,94.08
2017-03-22T00:20:49.597Z,94.27
2017-03-22T00:20:53.908Z,94.27
2017-03-22T00:20:58.340Z,94.37
2017-03-22T00:21:02.869Z,94.46
2017-03-22T00:21:06.949Z,93.41
2017-03-22T00:21:11.156Z,94.27
2017-03-22T00:21:15.619Z,93.7
2017-03-22T00:21:19.929Z,94.08
2017-03-22T00:21:24.238Z,93.79
2017-03-22T00:21:28.551Z,93.51
2017-03-22T00:21:32.743Z,93.7
2017-03-22T00:21:37.171Z,93.79
2017-03-22T00:21:41.483Z,93.79
2017-03-22T00:21:45.923Z,93.99
2017-03-22T00:21:50.400Z,94.18
2017-03-22T00:21:54.832Z,94.08
2017-03-22T00:21:59.268Z,94.08
2017-03-22T00:22:03.282Z,93.6
2017-03-22T00:22:07.639Z,94.65
2017-03-22T00:22:11.956Z,94.56
2017-03-22T00:22:16.266Z,93.99
2017-03-22T00:22:20.703Z,94.56
2017-03-22T00:22:25.022Z,94.27
2017-03-22T00:22:29.336Z,94.37
2017-03-22T00:22:33.537Z,94.56
2017-03-22T00:22:37.990Z,94.08
2017-03-22T00:22:42.428Z,93.99
2017-03-22T00:22:46.865Z,94.37
2017-03-22T00:22:51.306Z,94.27
2017-03-22T00:22:55.807Z,94.08
2017-03-22T00:23:00.131Z,93.99
2017-03-22T00:23:04.098Z,93.99
2017-03-22T00:23:08.433Z,93.99
2017-03-22T00:23:12.875Z,94.27
2017-03-22T00:23:17.323Z,93.99
2017-03-22T00:23:21.753Z,94.08
2017-03-22T00:23:26.180Z,94.65
2017-03-22T00:23:30.623Z,94.27
2017-03-22T00:23:35.110Z,94.08
2017-03-22T00:23:39.548Z,94.18
2017-03-22T00:23:43.979Z,93.99
2017-03-22T00:23:48.417Z,93.99
2017-03-22T00:23:52.880Z,93.99
2017-03-22T00:23:57.083Z,94.37
2017-03-22T00:24:01.401Z,94.18
2017-03-22T00:24:05.885Z,94.84
2017-03-22T00:24:10.148Z,94.08
2017-03-22T00:24:14.479Z,94.27
2017-03-22T00:24:18.915Z,94.08
2017-03-22T00:24:23.357Z,94.18
2017-03-22T00:24:27.808Z,93.89
2017-03-22T00:24:32.001Z,94.08
2017-03-22T00:24:36.431Z,94.08
2017-03-22T00:24:40.750Z,94.08
2017-03-22T00:24:45.098Z,94.08
2017-03-22T00:24:49.410Z,93.99
2017-03-22T00:24:53.841Z,94.18
2017-03-22T00:24:58.166Z,94.37
2017-03-22T00:25:02.585Z,94.27
2017-03-22T00:25:06.783Z,94.65
2017-03-22T00:25:11.091Z,94.27
2017-03-22T00:25:15.525Z,94.56
2017-03-22T00:25:19.840Z,94.65
2017-03-22T00:25:24.151Z,94.56
2017-03-22T00:25:28.462Z,94.37
2017-03-22T00:25:32.771Z,94.46
2017-03-22T00:25:37.211Z,94.56
2017-03-22T00:25:41.645Z,93.99
2017-03-22T00:25:45.955Z,94.18
2017-03-22T00:25:50.387Z,93.99
2017-03-22T00:25:54.820Z,94.08
2017-03-22T00:25:59.128Z,93.99
2017-03-22T00:26:03.435Z,94.27
2017-03-22T00:26:07.862Z,94.46
2017-03-22T00:26:12.063Z,94.27
2017-03-22T00:26:16.273Z,93.89
2017-03-22T00:26:20.699Z,94.27
2017-03-22T00:26:25.124Z,94.08
2017-03-22T00:26:29.574Z,94.93
2017-03-22T00:26:34.012Z,95.12
2017-03-22T00:26:38.443Z,94.74
2017-03-22T00:26:42.867Z,94.27
2017-03-22T00:26:47.301Z,93.99
2017-03-22T00:26:51.500Z,94.46
2017-03-22T00:26:55.933Z,94.65
2017-03-22T00:27:00.244Z,94.08
2017-03-22T00:27:04.331Z,94.37
2017-03-22T00:27:08.773Z,94.46
2017-03-22T00:27:13.200Z,94.37
2017-03-22T00:27:17.637Z,94.18
2017-03-22T00:27:22.072Z,94.37
2017-03-22T00:27:26.394Z,94.84
2017-03-22T00:27:30.708Z,95.03
2017-03-22T00:27:34.915Z,95.22
2017-03-22T00:27:39.354Z,95.03
2017-03-22T00:27:43.789Z,95.51
2017-03-22T00:27:48.235Z,95.03
2017-03-22T00:27:52.726Z,95.12
2017-03-22T00:27:57.175Z,95.03
2017-03-22T00:28:01.615Z,95.12
2017-03-22T00:28:05.814Z,95.41
2017-03-22T00:28:10.167Z,95.03
2017-03-22T00:28:14.606Z,95.12
2017-03-22T00:28:18.924Z,95.12
2017-03-22T00:28:23.358Z,95.03
2017-03-22T00:28:27.803Z,95.12
2017-03-22T00:28:32.123Z,95.12
2017-03-22T00:28:36.570Z,94.84
2017-03-22T00:28:41.007Z,94.93
2017-03-22T00:28:45.451Z,95.12
2017-03-22T00:28:49.535Z,95.6
2017-03-22T00:28:53.852Z,95.32
2017-03-22T00:28:58.176Z,95.12
2017-03-22T00:29:02.539Z,95.41
2017-03-22T00:29:06.989Z,95.22
2017-03-22T00:29:11.198Z,94.84
2017-03-22T00:29:15.642Z,94.65
2017-03-22T00:29:19.845Z,94.74
2017-03-22T00:29:24.171Z,94.84
2017-03-22T00:29:28.604Z,95.03
2017-03-22T00:29:33.039Z,95.22
2017-03-22T00:29:37.477Z,95.22
2017-03-22T00:29:41.905Z,95.32
2017-03-22T00:29:46.223Z,95.03
2017-03-22T00:29:50.660Z,95.12
2017-03-22T00:29:55.120Z,95.22
2017-03-22T00:29:59.563Z,95.32
2017-03-22T00:30:03.770Z,94.74
2017-03-22T00:30:08.203Z,94.46
2017-03-22T00:30:12.532Z,94.74
2017-03-22T00:30:16.957Z,94.37
2017-03-22T00:30:21.389Z,94.37
2017-03-22T00:30:25.833Z,93.99
2017-03-22T00:30:30.146Z,94.46
2017-03-22T00:30:34.576Z,94.37
2017-03-22T00:30:38.768Z,94.27
2017-03-22T00:30:43.085Z,94.18
2017-03-22T00:30:47.398Z,94.37
2017-03-22T00:30:51.587Z,94.46
2017-03-22T00:30:56.017Z,94.37
2017-03-22T00:31:00.335Z,94.46
2017-03-22T00:31:04.645Z,94.46
2017-03-22T00:31:09.072Z,94.37
2017-03-22T00:31:13.388Z,94.56
2017-03-22T00:31:17.819Z,94.37
2017-03-22T00:31:22.261Z,94.37
2017-03-22T00:31:26.572Z,94.46
2017-03-22T00:31:30.885Z,94.27
2017-03-22T00:31:35.197Z,94.37
2017-03-22T00:31:39.662Z,94.18
2017-03-22T00:31:43.982Z,94.46
2017-03-22T00:31:48.412Z,94.46
2017-03-22T00:31:52.723Z,94.18
2017-03-22T00:31:57.160Z,94.27
2017-03-22T00:32:01.472Z,93.99
2017-03-22T00:32:05.787Z,94.46
2017-03-22T00:32:10.220Z,94.18
2017-03-22T00:32:14.656Z,94.46
2017-03-22T00:32:18.853Z,94.65
2017-03-22T00:32:23.285Z,93.89
2017-03-22T00:32:27.597Z,94.37
2017-03-22T00:32:32.051Z,94.46
2017-03-22T00:32:36.492Z,94.56
2017-03-22T00:32:40.938Z,94.46
2017-03-22T00:32:45.146Z,94.65
2017-03-22T00:32:49.587Z,94.65
2017-03-22T00:32:54.028Z,94.56
2017-03-22T00:32:58.468Z,94.65
2017-03-22T00:33:02.881Z,94.46
2017-03-22T00:33:07.193Z,94.37
2017-03-22T00:33:11.527Z,94.37
2017-03-22T00:33:15.858Z,94.37
2017-03-22T00:33:20.295Z,94.27
2017-03-22T00:33:24.732Z,94.27
2017-03-22T00:33:29.172Z,94.27
2017-03-22T00:33:33.489Z,94.74
2017-03-22T00:33:37.847Z,94.18
2017-03-22T00:33:42.280Z,94.08
2017-03-22T00:33:46.607Z,94.08
2017-03-22T00:33:51.049Z,93.99
2017-03-22T00:33:55.490Z,94.08
2017-03-22T00:33:59.810Z,94.08
2017-03-22T00:34:04.251Z,94.18
2017-03-22T00:34:08.618Z,94.46
2017-03-22T00:34:13.057Z,94.65
2017-03-22T00:34:17.374Z,94.46
2017-03-22T00:34:21.808Z,94.46
2017-03-22T00:34:26.253Z,94.46
2017-03-22T00:34:30.570Z,94.18
2017-03-22T00:34:35.003Z,94.08
2017-03-22T00:34:39.203Z,94.65
2017-03-22T00:34:43.517Z,94.46
2017-03-22T00:34:47.948Z,94.65
2017-03-22T00:34:52.386Z,94.65
2017-03-22T00:34:56.834Z,94.37
2017-03-22T00:35:01.274Z,94.27
2017-03-22T00:35:05.721Z,94.27
2017-03-22T00:35:10.468Z,94.18
2017-03-22T00:35:14.667Z,94.37
2017-03-22T00:35:18.861Z,94.18
2017-03-22T00:35:23.172Z,94.46
2017-03-22T00:35:27.475Z,94.18
2017-03-22T00:35:31.548Z,94.46
2017-03-22T00:35:35.873Z,94.27
2017-03-22T00:35:40.302Z,94.18
2017-03-22T00:35:44.725Z,93.99
2017-03-22T00:35:49.149Z,93.99
2017-03-22T00:35:53.632Z,94.18
2017-03-22T00:35:58.065Z,94.18
2017-03-22T00:36:02.648Z,93.79
2017-03-22T00:36:06.723Z,94.08
2017-03-22T00:36:11.071Z,94.46
2017-03-22T00:36:15.493Z,94.27
2017-03-22T00:36:19.919Z,94.46
2017-03-22T00:36:24.221Z,94.65
2017-03-22T00:36:28.654Z,95.22
2017-03-22T00:36:32.967Z,94.84
2017-03-22T00:36:37.392Z,95.22
2017-03-22T00:36:41.701Z,94.93
2017-03-22T00:36:46.131Z,94.46
2017-03-22T00:36:50.563Z,94.56
2017-03-22T00:36:54.990Z,94.84
2017-03-22T00:36:59.309Z,94.65
2017-03-22T00:37:03.276Z,95.22
2017-03-22T00:37:07.705Z,94.74
2017-03-22T00:37:11.897Z,95.32
2017-03-22T00:37:16.321Z,95.22
2017-03-22T00:37:20.636Z,95.03
2017-03-22T00:37:25.068Z,94.93
2017-03-22T00:37:29.267Z,95.03
2017-03-22T00:37:33.583Z,94.93
2017-03-22T00:37:38.072Z,95.03
2017-03-22T00:37:42.380Z,95.32
2017-03-22T00:37:46.808Z,95.32
2017-03-22T00:37:51.245Z,95.32
2017-03-22T00:37:55.683Z,95.32
2017-03-22T00:38:00.117Z,95.12
2017-03-22T00:38:04.624Z,94.84
2017-03-22T00:38:08.942Z,94.84
2017-03-22T00:38:13.177Z,95.03
2017-03-22T00:38:17.490Z,95.12
2017-03-22T00:38:21.811Z,94.84
2017-03-22T00:38:26.247Z,95.32
2017-03-22T00:38:30.704Z,95.03
2017-03-22T00:38:35.026Z,94.93
2017-03-22T00:38:39.466Z,94.84
2017-03-22T00:38:43.908Z,94.74
2017-03-22T00:38:48.354Z,94.84
2017-03-22T00:38:52.674Z,94.65
2017-03-22T00:38:57.109Z,94.56
2017-03-22T00:39:01.421Z,94.08
2017-03-22T00:39:06.103Z,94.08
2017-03-22T00:39:10.314Z,93.99
2017-03-22T00:39:14.629Z,93.99
2017-03-22T00:39:18.949Z,94.37
2017-03-22T00:39:23.389Z,94.46
2017-03-22T00:39:27.730Z,94.27
2017-03-22T00:39:32.189Z,94.46
2017-03-22T00:39:36.498Z,94.37
2017-03-22T00:39:40.937Z,94.84
2017-03-22T00:39:45.371Z,94.65
2017-03-22T00:39:49.813Z,94.65
2017-03-22T00:39:54.246Z,94.46
2017-03-22T00:39:58.684Z,94.46
2017-03-22T00:40:03.126Z,94.18
2017-03-22T00:40:07.433Z,94.37
2017-03-22T00:40:11.748Z,94.65
2017-03-22T00:40:16.178Z,94.08
2017-03-22T00:40:20.491Z,94.46
2017-03-22T00:40:24.922Z,94.08
2017-03-22T00:40:29.122Z,94.08
2017-03-22T00:40:33.555Z,94.18
2017-03-22T00:40:37.875Z,94.37
2017-03-22T00:40:42.306Z,94.37
2017-03-22T00:40:46.739Z,94.46
2017-03-22T00:40:51.082Z,94.56
2017-03-22T00:40:55.548Z,94.46
2017-03-22T00:40:59.977Z,94.46
2017-03-22T00:41:04.402Z,94.37
2017-03-22T00:41:08.830Z,93.99
2017-03-22T00:41:13.301Z,94.37
2017-03-22T00:41:17.730Z,94.27
2017-03-22T00:41:21.922Z,94.37
2017-03-22T00:41:26.358Z,94.37
2017-03-22T00:41:30.788Z,94.37
2017-03-22T00:41:35.220Z,94.18
2017-03-22T00:41:39.654Z,94.18
2017-03-22T00:41:44.082Z,94.18
2017-03-22T00:41:48.395Z,94.46
2017-03-22T00:41:52.716Z,94.46
2017-03-22T00:41:57.158Z,94.37
2017-03-22T00:42:01.360Z,94.18
2017-03-22T00:42:05.842Z,94.27
2017-03-22T00:42:10.156Z,94.37
2017-03-22T00:42:14.479Z,94.65
2017-03-22T00:42:18.671Z,94.08
2017-03-22T00:42:22.869Z,94.37
2017-03-22T00:42:27.185Z,94.46
2017-03-22T00:42:31.614Z,94.56
2017-03-22T00:42:36.050Z,94.56
2017-03-22T00:42:40.490Z,94.37
2017-03-22T00:42:44.930Z,94.56
2017-03-22T00:42:49.256Z,94.46
2017-03-22T00:42:53.623Z,94.56
2017-03-22T00:42:58.058Z,94.65
2017-03-22T00:43:02.356Z,94.37
2017-03-22T00:43:06.797Z,94.46
2017-03-22T00:43:11.167Z,94.46
2017-03-22T00:43:15.482Z,94.56
2017-03-22T00:43:19.805Z,94.46
2017-03-22T00:43:24.123Z,94.08
2017-03-22T00:43:28.438Z,94.46
2017-03-22T00:43:32.870Z,94.46
2017-03-22T00:43:37.306Z,94.46
2017-03-22T00:43:41.748Z,94.18
2017-03-22T00:43:46.193Z,94.46
2017-03-22T00:43:50.627Z,94.65
2017-03-22T00:43:55.066Z,94.27
2017-03-22T00:43:59.516Z,94.46
2017-03-22T00:44:04.198Z,94.18
2017-03-22T00:44:08.636Z,94.08
2017-03-22T00:44:12.951Z,93.79
2017-03-22T00:44:17.284Z,94.65
2017-03-22T00:44:21.605Z,94.46
2017-03-22T00:44:25.925Z,94.08
2017-03-22T00:44:30.366Z,93.89
2017-03-22T00:44:34.686Z,93.99
2017-03-22T00:44:39.127Z,93.79
2017-03-22T00:44:43.442Z,93.99
2017-03-22T00:44:47.881Z,93.99
2017-03-22T00:44:52.252Z,93.99
2017-03-22T00:44:56.693Z,94.08
2017-03-22T00:45:01.020Z,93.89
2017-03-22T00:45:05.349Z,94.08
2017-03-22T00:45:09.825Z,93.79
2017-03-22T00:45:14.264Z,93.6
2017-03-22T00:45:18.569Z,94.18
2017-03-22T00:45:22.998Z,93.99
2017-03-22T00:45:27.430Z,94.27
2017-03-22T00:45:31.861Z,93.99
2017-03-22T00:45:36.173Z,94.18
2017-03-22T00:45:40.611Z,94.18
2017-03-22T00:45:44.965Z,93.89
2017-03-22T00:45:49.282Z,93.89
2017-03-22T00:45:53.593Z,93.99
2017-03-22T00:45:58.028Z,93.79
2017-03-22T00:46:02.233Z,93.6
2017-03-22T00:46:06.660Z,93.99
2017-03-22T00:46:11.082Z,94.08
2017-03-22T00:46:15.397Z,93.99
2017-03-22T00:46:19.716Z,94.18
2017-03-22T00:46:24.149Z,94.08
2017-03-22T00:46:28.343Z,93.89
2017-03-22T00:46:32.788Z,93.89
2017-03-22T00:46:37.216Z,93.89
2017-03-22T00:46:41.524Z,94.08
2017-03-22T00:46:45.955Z,94.08
2017-03-22T00:46:50.269Z,94.08
2017-03-22T00:46:54.596Z,93.23
2017-03-22T00:46:59.028Z,94.08
2017-03-22T00:47:03.603Z,93.79
2017-03-22T00:47:08.033Z,94.08
2017-03-22T00:47:12.469Z,93.6
2017-03-22T00:47:16.902Z,94.08
2017-03-22T00:47:21.226Z,93.79
2017-03-22T00:47:25.549Z,94.37
2017-03-22T00:47:29.872Z,93.89
2017-03-22T00:47:34.301Z,93.99
2017-03-22T00:47:38.744Z,94.27
2017-03-22T00:47:43.183Z,94.08
2017-03-22T00:47:47.630Z,93.99
2017-03-22T00:47:52.065Z,94.08
2017-03-22T00:47:56.502Z,94.84
2017-03-22T00:48:00.827Z,94.74
2017-03-22T00:48:05.281Z,94.65
2017-03-22T00:48:09.484Z,94.93
2017-03-22T00:48:13.800Z,94.84
2017-03-22T00:48:18.126Z,94.65
2017-03-22T00:48:22.570Z,94.18
2017-03-22T00:48:27.004Z,94.74
2017-03-22T00:48:31.434Z,94.37
2017-03-22T00:48:35.880Z,94.84
2017-03-22T00:48:40.197Z,94.84
2017-03-22T00:48:44.509Z,94.84
2017-03-22T00:48:48.944Z,95.03
2017-03-22T00:48:53.390Z,94.93
2017-03-22T00:48:57.843Z,95.12
2017-03-22T00:49:02.496Z,95.12
2017-03-22T00:49:06.815Z,95.32
2017-03-22T00:49:11.137Z,95.12
2017-03-22T00:49:15.645Z,95.41
2017-03-22T00:49:19.965Z,95.22
2017-03-22T00:49:24.400Z,94.84
2017-03-22T00:49:28.837Z,94.84
2017-03-22T00:49:33.153Z,94.84
2017-03-22T00:49:37.582Z,94.84
2017-03-22T00:49:42.014Z,94.84
2017-03-22T00:49:46.452Z,94.74
2017-03-22T00:49:50.649Z,94.56
2017-03-22T00:49:55.090Z,95.41
2017-03-22T00:49:59.408Z,94.74
2017-03-22T00:50:03.650Z,95.03
2017-03-22T00:50:07.849Z,94.74
2017-03-22T00:50:12.435Z,94.65
2017-03-22T00:50:16.624Z,94.74
2017-03-22T00:50:21.056Z,94.56
2017-03-22T00:50:25.370Z,94.93
2017-03-22T00:50:29.556Z,94.08
2017-03-22T00:50:33.985Z,94.46
2017-03-22T00:50:38.421Z,94.08
2017-03-22T00:50:42.734Z,94.18
2017-03-22T00:50:47.158Z,94.27
2017-03-22T00:50:51.587Z,94.18
2017-03-22T00:50:55.780Z,94.27
2017-03-22T00:51:00.247Z,94.37
2017-03-22T00:51:04.748Z,93.99
2017-03-22T00:51:09.175Z,94.37
2017-03-22T00:51:13.494Z,94.37
2017-03-22T00:51:17.965Z,94.08
2017-03-22T00:51:22.389Z,94.37
2017-03-22T00:51:26.811Z,94.27
2017-03-22T00:51:31.121Z,94.84
2017-03-22T00:51:35.309Z,94.84
2017-03-22T00:51:39.737Z,94.65
2017-03-22T00:51:44.167Z,94.74
2017-03-22T00:51:48.610Z,94.84
2017-03-22T00:51:53.045Z,94.84
2017-03-22T00:51:57.468Z,94.84
2017-03-22T00:52:01.664Z,94.93
2017-03-22T00:52:06.160Z,94.65
2017-03-22T00:52:10.597Z,94.56
2017-03-22T00:52:14.796Z,94.84
2017-03-22T00:52:19.254Z,94.56
2017-03-22T00:52:23.562Z,94.74
2017-03-22T00:52:27.876Z,95.22
2017-03-22T00:52:32.310Z,95.03
2017-03-22T00:52:36.619Z,95.22
2017-03-22T00:52:41.086Z,94.84
2017-03-22T00:52:45.530Z,94.93
2017-03-22T00:52:49.970Z,94.65
2017-03-22T00:52:54.450Z,95.22
2017-03-22T00:52:58.658Z,94.74
2017-03-22T00:53:03.325Z,94.93
2017-03-22T00:53:07.647Z,94.84
2017-03-22T00:53:11.987Z,94.65
2017-03-22T00:53:16.439Z,94.56
2017-03-22T00:53:20.879Z,94.93
2017-03-22T00:53:25.313Z,94.74
2017-03-22T00:53:29.746Z,95.03
2017-03-22T00:53:34.179Z,94.84
2017-03-22T00:53:38.616Z,95.22
2017-03-22T00:53:42.823Z,95.03
2017-03-22T00:53:47.279Z,94.65
2017-03-22T00:53:51.602Z,94.65
2017-03-22T00:53:56.043Z,94.56
2017-03-22T00:54:00.249Z,94.84
2017-03-22T00:54:04.785Z,95.12
2017-03-22T00:54:08.982Z,95.32
2017-03-22T00:54:13.426Z,95.41
2017-03-22T00:54:17.866Z,95.22
2017-03-22T00:54:22.311Z,95.12
2017-03-22T00:54:26.635Z,95.22
2017-03-22T00:54:31.072Z,95.12
2017-03-22T00:54:35.497Z,95.12
2017-03-22T00:54:39.932Z,95.32
2017-03-22T00:54:44.244Z,95.79
2017-03-22T00:54:48.675Z,94.93
2017-03-22T00:54:53.112Z,94.74
2017-03-22T00:54:57.554Z,95.51
2017-03-22T00:55:01.991Z,95.6
2017-03-22T00:55:06.438Z,95.79
2017-03-22T00:55:10.874Z,95.51
2017-03-22T00:55:15.232Z,95.51
2017-03-22T00:55:19.425Z,95.51
2017-03-22T00:55:23.741Z,95.79
2017-03-22T00:55:28.166Z,95.89
2017-03-22T00:55:32.604Z,95.89
2017-03-22T00:55:37.030Z,95.7
2017-03-22T00:55:41.459Z,95.79
2017-03-22T00:55:45.777Z,95.22
2017-03-22T00:55:50.090Z,95.32
2017-03-22T00:55:54.405Z,95.7
2017-03-22T00:55:58.727Z,96.17
2017-03-22T00:56:02.919Z,95.6
2017-03-22T00:56:07.120Z,95.98
2017-03-22T00:56:11.451Z,95.7
2017-03-22T00:56:15.884Z,96.65
2017-03-22T00:56:20.197Z,96.65
2017-03-22T00:56:24.388Z,96.36